Time;durP1;ratioP1;P1;durP2;ratioP2;P2;SDS_P1;SDS_P2;PMS_P1;PMS_P2;Temp;Humidity;BMP_temperature;BMP_pressure;BME280_temperature;BME280_humidity;BME280_pressure;Samples;Min_cycle;Max_cycle;Signal;HPM_P1;HPM_P2
2023/11/24 00:00:36;;;;;;;3.80;1.70;;;;;;;;;;5090763;28;20038;-57
2023/11/24 00:03:02;;;;;;;4.17;2.23;;;;;;;;;;5092321;28;20023;-58
2023/11/24 00:05:29;;;;;;;16.60;5.57;;;;;;;;;;5091281;28;20024;-57
2023/11/24 00:07:56;;;;;;;5.67;2.87;;;;;;;;;;5088126;28;20121;-58
2023/11/24 00:10:28;;;;;;;4.97;2.30;;;;;;;;;;5087335;28;20032;-58
2023/11/24 00:12:56;;;;;;;3.60;2.20;;;;;;;;;;5087048;28;20031;-58
2023/11/24 00:15:23;;;;;;;2.67;1.80;;;;;;;;;;5086184;28;20017;-57
2023/11/24 00:17:50;;;;;;;5.97;2.80;;;;;;;;;;5090501;28;20043;-58
2023/11/24 00:20:17;;;;;;;3.53;2.27;;;;;;;;;;5077087;28;20085;-57
2023/11/24 00:22:45;;;;;;;4.50;2.47;;;;;;;;;;5072313;28;20028;-57
2023/11/24 00:25:12;;;;;;;2.87;1.73;;;;;;;;;;5071898;28;20082;-58
2023/11/24 00:27:39;;;;;;;1.83;1.57;;;;;;;;;;5072187;28;20098;-57
2023/11/24 00:30:07;;;;;;;3.97;2.33;;;;;;;;;;5068248;28;20228;-57
2023/11/24 00:32:39;;;;;;;3.20;2.10;;;;;;;;;;5066777;28;20107;-57
2023/11/24 00:35:06;;;;;;;12.30;2.10;;;;;;;;;;5066914;28;20025;-57
2023/11/24 00:37:33;;;;;;;6.03;3.13;;;;;;;;;;5066889;28;20054;-58
2023/11/24 00:40:00;;;;;;;12.13;6.47;;;;;;;;;;5069910;28;20065;-57
2023/11/24 00:42:29;;;;;;;43.03;10.53;;;;;;;;;;5071711;28;20025;-58
2023/11/24 00:44:56;;;;;;;24.33;11.90;;;;;;;;;;5082747;28;20035;-57
2023/11/24 00:47:23;;;;;;;42.57;17.87;;;;;;;;;;5092007;28;20526;-58
2023/11/24 00:49:49;;;;;;;27.27;7.23;;;;;;;;;;5074434;28;20032;-57
2023/11/24 00:52:16;;;;;;;13.47;6.80;;;;;;;;;;5068422;28;20124;-58
2023/11/24 00:54:42;;;;;;;6.60;3.47;;;;;;;;;;5066785;28;20024;-58
2023/11/24 00:57:09;;;;;;;20.90;5.87;;;;;;;;;;5066784;28;20108;-57
2023/11/24 00:59:36;;;;;;;6.33;3.47;;;;;;;;;;5066304;28;20077;-58
2023/11/24 01:02:02;;;;;;;5.47;3.27;;;;;;;;;;5069106;28;20077;-57
2023/11/24 01:04:29;;;;;;;3.60;2.20;;;;;;;;;;5071685;28;20398;-58
2023/11/24 01:06:56;;;;;;;6.87;4.47;;;;;;;;;;5071679;28;20032;-57
2023/11/24 01:09:24;;;;;;;10.67;4.97;;;;;;;;;;5071657;28;20064;-58
2023/11/24 01:11:50;;;;;;;5.97;2.87;;;;;;;;;;5071810;28;20073;-57
2023/11/24 01:14:17;;;;;;;6.43;4.03;;;;;;;;;;5078479;28;20032;-57
2023/11/24 01:16:44;;;;;;;13.43;2.93;;;;;;;;;;5086739;28;20096;-58
2023/11/24 01:19:10;;;;;;;5.23;3.17;;;;;;;;;;5086394;28;20047;-57
2023/11/24 01:21:37;;;;;;;4.70;3.20;;;;;;;;;;5086702;28;20024;-58
2023/11/24 01:24:04;;;;;;;7.33;3.43;;;;;;;;;;5086200;28;20016;-57
2023/11/24 01:26:30;;;;;;;3.27;1.87;;;;;;;;;;5092882;28;20016;-57
2023/11/24 01:28:59;;;;;;;8.67;2.67;;;;;;;;;;5095656;28;20024;-57
2023/11/24 01:31:26;;;;;;;19.97;3.07;;;;;;;;;;5095161;28;20024;-58
2023/11/24 01:33:52;;;;;;;9.57;3.53;;;;;;;;;;5095500;28;20379;-57
2023/11/24 01:36:19;;;;;;;5.93;3.23;;;;;;;;;;5093502;28;20415;-58
2023/11/24 01:38:46;;;;;;;8.00;2.30;;;;;;;;;;5079864;28;20431;-58
2023/11/24 01:41:13;;;;;;;5.23;3.03;;;;;;;;;;5069929;28;20885;-57
2023/11/24 01:43:41;;;;;;;4.60;2.43;;;;;;;;;;5085256;28;20097;-57
2023/11/24 01:46:08;;;;;;;3.63;2.13;;;;;;;;;;5090838;28;20035;-57
2023/11/24 01:48:35;;;;;;;4.10;2.73;;;;;;;;;;5095192;28;20043;-57
2023/11/24 01:51:01;;;;;;;13.47;2.13;;;;;;;;;;5095149;28;20074;-57
2023/11/24 01:53:29;;;;;;;5.03;2.00;;;;;;;;;;5092221;28;20047;-57
2023/11/24 01:55:56;;;;;;;15.47;2.67;;;;;;;;;;5093728;28;20039;-57
2023/11/24 01:58:22;;;;;;;3.63;2.13;;;;;;;;;;5093935;28;20547;-57
2023/11/24 02:00:50;;;;;;;2.90;1.80;;;;;;;;;;5085311;28;20471;-57
2023/11/24 02:03:17;;;;;;;3.67;1.77;;;;;;;;;;5070433;28;20067;-57
2023/11/24 02:05:43;;;;;;;4.13;2.13;;;;;;;;;;5071464;28;20031;-57
2023/11/24 02:08:10;;;;;;;4.50;2.53;;;;;;;;;;5069248;28;20086;-57
2023/11/24 02:10:37;;;;;;;2.67;2.13;;;;;;;;;;5074519;28;20024;-57
2023/11/24 02:13:03;;;;;;;6.70;3.20;;;;;;;;;;5074401;28;20024;-57
2023/11/24 02:15:30;;;;;;;3.07;1.70;;;;;;;;;;5074049;28;20498;-58
2023/11/24 02:17:57;;;;;;;7.67;2.40;;;;;;;;;;5074389;28;20029;-58
2023/11/24 02:20:26;;;;;;;10.23;2.40;;;;;;;;;;5074501;28;20050;-57
2023/11/24 02:22:52;;;;;;;1.63;1.17;;;;;;;;;;5069048;28;20418;-58
2023/11/24 02:25:19;;;;;;;2.93;1.80;;;;;;;;;;5069130;28;20032;-57
2023/11/24 02:27:46;;;;;;;11.03;2.87;;;;;;;;;;5068957;28;20041;-57
2023/11/24 02:30:12;;;;;;;16.63;2.87;;;;;;;;;;5084065;28;20498;-57
2023/11/24 02:32:39;;;;;;;13.97;2.90;;;;;;;;;;5093489;28;20031;-57
2023/11/24 02:35:06;;;;;;;3.73;2.00;;;;;;;;;;5094380;28;20028;-57
2023/11/24 02:37:32;;;;;;;14.57;2.77;;;;;;;;;;5093749;28;20039;-57
2023/11/24 02:39:59;;;;;;;3.00;1.83;;;;;;;;;;5094297;28;20108;-57
2023/11/24 02:42:26;;;;;;;3.80;2.30;;;;;;;;;;5093914;28;20054;-57
2023/11/24 02:44:52;;;;;;;4.27;2.33;;;;;;;;;;5089411;28;20020;-58
2023/11/24 02:47:20;;;;;;;5.63;2.57;;;;;;;;;;5088500;28;20088;-57
2023/11/24 02:49:47;;;;;;;2.90;2.17;;;;;;;;;;5088717;28;20036;-57
2023/11/24 02:52:14;;;;;;;4.87;3.00;;;;;;;;;;5088506;28;20036;-57
2023/11/24 02:54:40;;;;;;;4.30;2.77;;;;;;;;;;5083284;28;20072;-57
2023/11/24 02:57:07;;;;;;;3.93;2.63;;;;;;;;;;5073798;28;20029;-57
2023/11/24 02:59:34;;;;;;;3.43;2.20;;;;;;;;;;5073420;28;20028;-58
2023/11/24 03:02:01;;;;;;;3.50;1.80;;;;;;;;;;5073175;28;20024;-57
2023/11/24 03:04:27;;;;;;;4.63;2.07;;;;;;;;;;5073631;28;20054;-57
2023/11/24 03:06:55;;;;;;;2.13;1.40;;;;;;;;;;5069561;28;20028;-57
2023/11/24 03:09:23;;;;;;;4.33;2.60;;;;;;;;;;5067965;28;20032;-58
2023/11/24 03:11:50;;;;;;;2.13;1.30;;;;;;;;;;5068006;28;20039;-57
2023/11/24 03:14:20;;;;;;;4.40;2.50;;;;;;;;;;5068083;28;20024;-57
2023/11/24 03:16:47;;;;;;;4.63;2.00;;;;;;;;;;5070887;28;20387;-57
2023/11/24 03:19:14;;;;;;;8.43;2.27;;;;;;;;;;5073015;28;20044;-57
2023/11/24 03:21:40;;;;;;;3.00;2.00;;;;;;;;;;5077601;28;20073;-57
2023/11/24 03:24:07;;;;;;;13.03;3.00;;;;;;;;;;5092778;28;20530;-57
2023/11/24 03:26:34;;;;;;;2.50;1.80;;;;;;;;;;5093386;28;20538;-57
2023/11/24 03:29:00;;;;;;;2.37;1.77;;;;;;;;;;5089949;28;20039;-57
2023/11/24 03:31:28;;;;;;;4.33;2.73;;;;;;;;;;5088103;28;20045;-57
2023/11/24 03:33:55;;;;;;;5.20;2.90;;;;;;;;;;5087871;28;20111;-57
2023/11/24 03:36:22;;;;;;;4.87;2.13;;;;;;;;;;5087726;28;20035;-57
2023/11/24 03:38:49;;;;;;;5.83;2.30;;;;;;;;;;5089940;28;20462;-57
2023/11/24 03:41:16;;;;;;;3.00;2.23;;;;;;;;;;5092510;28;20031;-57
2023/11/24 03:43:43;;;;;;;11.60;2.67;;;;;;;;;;5081334;28;20077;-57
2023/11/24 03:46:10;;;;;;;5.63;2.53;;;;;;;;;;5072435;28;20032;-57
2023/11/24 03:48:37;;;;;;;4.10;2.53;;;;;;;;;;5072055;28;20494;-57
2023/11/24 03:51:05;;;;;;;10.63;1.93;;;;;;;;;;5070033;28;20029;-58
2023/11/24 03:53:31;;;;;;;5.10;2.37;;;;;;;;;;5067479;28;20071;-57
2023/11/24 03:55:58;;;;;;;7.53;1.80;;;;;;;;;;5067343;28;20032;-57
2023/11/24 03:58:25;;;;;;;5.10;2.13;;;;;;;;;;5067182;28;20024;-58
2023/11/24 04:00:52;;;;;;;2.30;1.43;;;;;;;;;;5079017;28;20036;-57
2023/11/24 04:03:18;;;;;;;3.10;2.10;;;;;;;;;;5074077;28;20040;-57
2023/11/24 04:05:46;;;;;;;11.93;2.07;;;;;;;;;;5075182;28;20028;-57
2023/11/24 04:08:14;;;;;;;3.13;1.87;;;;;;;;;;5092151;28;20058;-57
2023/11/24 04:10:40;;;;;;;5.40;2.53;;;;;;;;;;5090783;28;20485;-58
2023/11/24 04:13:07;;;;;;;3.90;2.67;;;;;;;;;;5090949;28;20027;-57
2023/11/24 04:15:33;;;;;;;5.67;2.67;;;;;;;;;;5086864;28;20447;-58
2023/11/24 04:18:00;;;;;;;3.70;2.30;;;;;;;;;;5072077;28;20099;-58
2023/11/24 04:20:27;;;;;;;10.57;2.83;;;;;;;;;;5067310;28;20390;-58
2023/11/24 04:22:53;;;;;;;4.77;2.57;;;;;;;;;;5085711;28;20016;-58
2023/11/24 04:25:20;;;;;;;3.57;2.00;;;;;;;;;;5072073;28;20024;-58
2023/11/24 04:27:47;;;;;;;5.43;2.47;;;;;;;;;;5072019;28;20066;-57
2023/11/24 04:30:13;;;;;;;3.23;2.23;;;;;;;;;;5090342;28;20069;-57
2023/11/24 04:32:40;;;;;;;5.67;1.90;;;;;;;;;;5092285;28;21328;-57
2023/11/24 04:35:07;;;;;;;5.13;2.53;;;;;;;;;;5091287;28;20016;-56
2023/11/24 04:37:34;;;;;;;5.07;2.83;;;;;;;;;;5076199;28;20039;-56
2023/11/24 04:40:01;;;;;;;6.93;2.50;;;;;;;;;;5068622;28;20048;-57
2023/11/24 04:42:28;;;;;;;4.00;2.43;;;;;;;;;;5066929;28;20028;-57
2023/11/24 04:44:56;;;;;;;7.33;3.37;;;;;;;;;;5077933;28;20030;-57
2023/11/24 04:47:22;;;;;;;5.43;3.10;;;;;;;;;;5091629;28;20119;-57
2023/11/24 04:49:49;;;;;;;6.33;2.57;;;;;;;;;;5092101;28;20032;-57
2023/11/24 04:52:16;;;;;;;8.77;2.87;;;;;;;;;;5091962;28;20035;-57
2023/11/24 04:54:42;;;;;;;5.57;1.97;;;;;;;;;;5091606;28;20036;-56
2023/11/24 04:57:09;;;;;;;4.10;2.60;;;;;;;;;;5091643;28;20386;-57
2023/11/24 04:59:42;;;;;;;3.33;1.90;;;;;;;;;;5086640;28;20036;-57
2023/11/24 05:02:09;;;;;;;6.83;3.90;;;;;;;;;;5073286;28;20029;-57
2023/11/24 05:04:39;;;;;;;6.37;3.03;;;;;;;;;;5070780;28;20029;-57
2023/11/24 05:07:06;;;;;;;10.63;3.43;;;;;;;;;;5068846;28;20032;-57
2023/11/24 05:09:32;;;;;;;3.43;2.47;;;;;;;;;;5095294;28;20039;-57
2023/11/24 05:11:59;;;;;;;5.47;3.40;;;;;;;;;;5095792;28;20020;-57
2023/11/24 05:14:26;;;;;;;6.63;2.87;;;;;;;;;;5095796;28;20485;-57
2023/11/24 05:16:53;;;;;;;10.53;3.40;;;;;;;;;;5095869;28;20046;-57
2023/11/24 05:19:19;;;;;;;10.70;3.33;;;;;;;;;;5094156;28;20038;-57
2023/11/24 05:21:46;;;;;;;3.50;1.93;;;;;;;;;;5083011;28;20056;-56
2023/11/24 05:24:12;;;;;;;5.83;3.27;;;;;;;;;;5070395;28;20077;-57
2023/11/24 05:26:39;;;;;;;11.87;3.17;;;;;;;;;;5070148;28;20032;-57
2023/11/24 05:29:06;;;;;;;4.17;2.73;;;;;;;;;;5069718;28;20552;-57
2023/11/24 05:31:33;;;;;;;6.63;3.30;;;;;;;;;;5073642;28;20048;-57
2023/11/24 05:33:59;;;;;;;5.27;3.40;;;;;;;;;;5074072;28;20035;-58
2023/11/24 05:36:27;;;;;;;5.23;2.77;;;;;;;;;;5075238;28;20481;-57
2023/11/24 05:38:54;;;;;;;4.37;2.70;;;;;;;;;;5075107;28;20111;-57
2023/11/24 05:41:21;;;;;;;5.87;2.87;;;;;;;;;;5075206;28;20031;-57
2023/11/24 05:43:48;;;;;;;5.13;2.97;;;;;;;;;;5070703;28;20052;-57
2023/11/24 05:46:15;;;;;;;4.33;3.13;;;;;;;;;;5069459;28;20021;-58
2023/11/24 05:48:41;;;;;;;5.87;2.47;;;;;;;;;;5089510;28;20062;-57
2023/11/24 05:51:08;;;;;;;4.23;2.60;;;;;;;;;;5090356;28;20039;-57
2023/11/24 05:53:34;;;;;;;4.63;3.00;;;;;;;;;;5092918;28;20062;-57
2023/11/24 05:56:01;;;;;;;4.97;2.80;;;;;;;;;;5087174;28;20137;-57
2023/11/24 05:58:28;;;;;;;11.47;3.23;;;;;;;;;;5092604;28;20499;-57
2023/11/24 06:00:55;;;;;;;5.20;2.57;;;;;;;;;;5094509;28;20058;-57
2023/11/24 06:03:21;;;;;;;11.17;3.37;;;;;;;;;;5094958;28;20024;-57
2023/11/24 06:05:48;;;;;;;5.27;2.77;;;;;;;;;;5091726;28;20024;-57
2023/11/24 06:08:15;;;;;;;5.47;2.80;;;;;;;;;;5089641;28;20080;-57
2023/11/24 06:10:42;;;;;;;3.23;2.47;;;;;;;;;;5086852;28;20040;-57
2023/11/24 06:13:09;;;;;;;6.20;2.87;;;;;;;;;;5080459;28;20056;-57
2023/11/24 06:15:35;;;;;;;17.37;2.73;;;;;;;;;;5092074;28;20024;-57
2023/11/24 06:18:02;;;;;;;3.60;2.17;;;;;;;;;;5094606;28;20031;-57
2023/11/24 06:20:28;;;;;;;5.17;2.77;;;;;;;;;;5094742;28;20036;-57
2023/11/24 06:22:55;;;;;;;4.67;2.93;;;;;;;;;;5094708;28;20020;-57
2023/11/24 06:25:22;;;;;;;8.20;2.50;;;;;;;;;;5093927;28;20103;-57
2023/11/24 06:27:48;;;;;;;2.80;2.13;;;;;;;;;;5091883;28;20478;-57
2023/11/24 06:30:15;;;;;;;3.70;2.53;;;;;;;;;;5089488;28;20085;-57
2023/11/24 06:32:42;;;;;;;12.07;2.73;;;;;;;;;;5089272;28;20070;-57
2023/11/24 06:35:11;;;;;;;6.50;3.80;;;;;;;;;;5076729;28;20025;-57
2023/11/24 06:37:40;;;;;;;7.13;2.83;;;;;;;;;;5074416;28;20046;-56
2023/11/24 06:40:11;;;;;;;10.53;2.33;;;;;;;;;;5093863;28;20048;-57
2023/11/24 06:42:39;;;;;;;7.47;3.63;;;;;;;;;;5094149;28;20116;-57
2023/11/24 06:45:08;;;;;;;6.77;2.97;;;;;;;;;;5094186;28;20080;-57
2023/11/24 06:47:34;;;;;;;3.57;2.50;;;;;;;;;;5094037;28;20032;-57
2023/11/24 06:50:02;;;;;;;4.30;2.90;;;;;;;;;;5092208;28;20478;-57
2023/11/24 06:52:29;;;;;;;3.33;2.30;;;;;;;;;;5088442;28;20032;-57
2023/11/24 06:54:56;;;;;;;2.57;1.80;;;;;;;;;;5089011;28;20068;-57
2023/11/24 06:57:22;;;;;;;2.10;1.27;;;;;;;;;;5087470;28;20479;-57
2023/11/24 06:59:49;;;;;;;3.87;2.77;;;;;;;;;;5069368;28;20032;-57
2023/11/24 07:02:15;;;;;;;4.73;2.43;;;;;;;;;;5073603;28;20036;-57
2023/11/24 07:04:43;;;;;;;3.73;2.23;;;;;;;;;;5073646;28;20074;-57
2023/11/24 07:07:10;;;;;;;3.77;2.67;;;;;;;;;;5073485;28;20482;-56
2023/11/24 07:09:38;;;;;;;3.17;2.13;;;;;;;;;;5073238;28;20040;-57
2023/11/24 07:12:04;;;;;;;2.93;2.10;;;;;;;;;;5071996;28;20028;-57
2023/11/24 07:14:31;;;;;;;1.53;1.30;;;;;;;;;;5067724;28;20029;-57
2023/11/24 07:16:58;;;;;;;2.30;1.77;;;;;;;;;;5068414;28;20092;-57
2023/11/24 07:19:24;;;;;;;2.87;2.10;;;;;;;;;;5068025;28;20089;-57
2023/11/24 07:21:51;;;;;;;3.73;2.50;;;;;;;;;;5068401;28;20534;-58
2023/11/24 07:24:18;;;;;;;6.63;2.87;;;;;;;;;;5087037;28;20023;-57
2023/11/24 07:26:45;;;;;;;2.70;1.77;;;;;;;;;;5093147;28;20024;-57
2023/11/24 07:29:14;;;;;;;5.80;2.63;;;;;;;;;;5093241;28;20032;-57
2023/11/24 07:31:41;;;;;;;5.00;2.50;;;;;;;;;;5093051;28;20115;-57
2023/11/24 07:34:07;;;;;;;2.23;1.80;;;;;;;;;;5093233;28;20028;-57
2023/11/24 07:36:34;;;;;;;3.73;2.43;;;;;;;;;;5087752;28;20028;-57
2023/11/24 07:39:03;;;;;;;4.90;2.27;;;;;;;;;;5088075;28;20032;-57
2023/11/24 07:41:30;;;;;;;6.10;2.50;;;;;;;;;;5088086;28;20154;-57
2023/11/24 07:43:57;;;;;;;4.63;2.70;;;;;;;;;;5087537;28;20028;-57
2023/11/24 07:46:24;;;;;;;2.87;1.90;;;;;;;;;;5092939;28;20034;-57
2023/11/24 07:48:51;;;;;;;5.33;2.77;;;;;;;;;;5085031;28;20043;-57
2023/11/24 07:51:18;;;;;;;3.80;2.43;;;;;;;;;;5072632;28;20067;-57
2023/11/24 07:53:44;;;;;;;3.03;1.90;;;;;;;;;;5072648;28;20102;-57
2023/11/24 07:56:11;;;;;;;3.27;2.13;;;;;;;;;;5072542;28;20040;-58
2023/11/24 07:58:39;;;;;;;3.00;1.80;;;;;;;;;;5079401;28;20070;-57
2023/11/24 08:01:05;;;;;;;5.07;2.43;;;;;;;;;;5086949;28;20394;-57
2023/11/24 08:03:32;;;;;;;2.87;1.80;;;;;;;;;;5087435;28;20115;-57
2023/11/24 08:06:06;;;;;;;4.40;2.53;;;;;;;;;;5087694;28;20084;-57
2023/11/24 08:08:33;;;;;;;5.00;2.57;;;;;;;;;;5091632;28;20120;-57
2023/11/24 08:10:59;;;;;;;6.50;3.50;;;;;;;;;;5092740;28;20024;-57
2023/11/24 08:13:26;;;;;;;5.43;3.57;;;;;;;;;;5092122;28;20034;-57
2023/11/24 08:15:53;;;;;;;5.13;3.10;;;;;;;;;;5092475;28;20020;-57
2023/11/24 08:18:21;;;;;;;10.30;3.10;;;;;;;;;;5092457;28;20024;-57
2023/11/24 08:20:47;;;;;;;6.80;3.47;;;;;;;;;;5087955;28;20427;-57
2023/11/24 08:23:15;;;;;;;5.60;4.13;;;;;;;;;;5081123;28;20471;-57
2023/11/24 08:25:42;;;;;;;3.93;3.13;;;;;;;;;;5067008;28;20419;-57
2023/11/24 08:28:11;;;;;;;3.10;2.03;;;;;;;;;;5066988;28;20387;-57
2023/11/24 08:30:38;;;;;;;5.30;3.13;;;;;;;;;;5070832;28;20089;-57
2023/11/24 08:33:05;;;;;;;4.77;3.07;;;;;;;;;;5072038;28;20130;-56
2023/11/24 08:35:31;;;;;;;3.60;2.63;;;;;;;;;;5071611;28;20025;-57
2023/11/24 08:37:58;;;;;;;4.67;2.90;;;;;;;;;;5071960;28;20024;-57
2023/11/24 08:40:26;;;;;;;5.57;2.90;;;;;;;;;;5071533;28;20434;-57
2023/11/24 08:42:53;;;;;;;5.20;3.10;;;;;;;;;;5067995;28;20039;-58
2023/11/24 08:45:20;;;;;;;2.80;1.90;;;;;;;;;;5066874;28;20536;-57
2023/11/24 08:47:48;;;;;;;6.27;3.30;;;;;;;;;;5066614;28;20379;-56
2023/11/24 08:50:15;;;;;;;3.47;2.57;;;;;;;;;;5085838;28;20067;-58
2023/11/24 08:52:42;;;;;;;5.27;3.03;;;;;;;;;;5089694;28;20542;-57
2023/11/24 08:55:09;;;;;;;3.50;2.30;;;;;;;;;;5092035;28;20027;-57
2023/11/24 08:57:36;;;;;;;4.40;2.40;;;;;;;;;;5091418;28;20487;-57
2023/11/24 09:00:05;;;;;;;3.70;2.63;;;;;;;;;;5090704;28;20103;-57
2023/11/24 09:02:32;;;;;;;13.70;2.87;;;;;;;;;;5071753;28;20033;-57
2023/11/24 09:05:00;;;;;;;3.37;2.07;;;;;;;;;;5083868;28;20069;-58
2023/11/24 09:07:27;;;;;;;5.70;2.47;;;;;;;;;;5066648;28;20033;-57
2023/11/24 09:09:54;;;;;;;5.80;2.93;;;;;;;;;;5066389;28;20116;-57
2023/11/24 09:12:20;;;;;;;5.57;3.40;;;;;;;;;;5066592;28;20429;-56
2023/11/24 09:14:47;;;;;;;4.37;2.63;;;;;;;;;;5068607;28;20020;-57
2023/11/24 09:17:14;;;;;;;3.07;2.23;;;;;;;;;;5071789;28;20402;-57
2023/11/24 09:19:40;;;;;;;7.13;2.63;;;;;;;;;;5071737;28;20115;-56
2023/11/24 09:22:07;;;;;;;4.40;2.60;;;;;;;;;;5071606;28;20026;-57
2023/11/24 09:24:34;;;;;;;2.23;1.70;;;;;;;;;;5071609;28;20029;-57
2023/11/24 09:27:01;;;;;;;4.20;1.90;;;;;;;;;;5068522;28;20051;-57
2023/11/24 09:29:27;;;;;;;4.43;2.13;;;;;;;;;;5066424;28;20037;-57
2023/11/24 09:31:57;;;;;;;3.17;1.93;;;;;;;;;;5086511;28;20032;-57
2023/11/24 09:34:24;;;;;;;3.67;2.40;;;;;;;;;;5086199;28;20093;-57
2023/11/24 09:36:51;;;;;;;4.33;2.57;;;;;;;;;;5088414;28;20039;-57
2023/11/24 09:39:18;;;;;;;3.20;2.07;;;;;;;;;;5091563;28;20382;-57
2023/11/24 09:41:54;;;;;;;3.67;2.20;;;;;;;;;;5091643;28;20020;-57
2023/11/24 09:44:21;;;;;;;2.23;1.50;;;;;;;;;;5089780;28;20028;-56
2023/11/24 09:46:48;;;;;;;3.57;2.50;;;;;;;;;;5091227;28;20371;-57
2023/11/24 09:49:16;;;;;;;3.33;2.50;;;;;;;;;;5081165;28;20716;-57
2023/11/24 09:51:43;;;;;;;3.23;2.10;;;;;;;;;;5069865;28;20472;-57
2023/11/24 09:54:11;;;;;;;3.20;2.23;;;;;;;;;;5069649;28;20050;-57
2023/11/24 09:56:42;;;;;;;3.03;2.10;;;;;;;;;;5069709;28;20441;-57
2023/11/24 09:59:09;;;;;;;3.67;2.43;;;;;;;;;;5071225;28;20039;-57
2023/11/24 10:01:38;;;;;;;4.40;2.53;;;;;;;;;;5074723;28;20043;-57
2023/11/24 10:04:06;;;;;;;2.33;1.90;;;;;;;;;;5074447;28;20029;-57
2023/11/24 10:06:35;;;;;;;2.07;1.67;;;;;;;;;;5074549;28;20029;-57
2023/11/24 10:09:06;;;;;;;2.50;1.83;;;;;;;;;;5074470;28;20506;-57
2023/11/24 10:11:38;;;;;;;3.53;2.27;;;;;;;;;;5072317;28;20081;-57
2023/11/24 10:14:07;;;;;;;5.77;2.43;;;;;;;;;;5087320;28;20294;-57
2023/11/24 10:16:39;;;;;;;3.20;2.07;;;;;;;;;;5089168;28;20031;-57
2023/11/24 10:19:14;;;;;;;3.40;2.03;;;;;;;;;;5089533;28;20077;-57
2023/11/24 10:21:43;;;;;;;2.37;1.80;;;;;;;;;;5091423;28;20024;-57
2023/11/24 10:24:10;;;;;;;3.47;2.20;;;;;;;;;;5094508;28;20027;-56
2023/11/24 10:26:40;;;;;;;5.90;2.07;;;;;;;;;;5094253;28;20047;-58
2023/11/24 10:29:09;;;;;;;2.73;1.97;;;;;;;;;;5094364;28;20032;-57
2023/11/24 10:31:36;;;;;;;3.27;2.10;;;;;;;;;;5094412;28;20433;-57
2023/11/24 10:34:05;;;;;;;4.63;2.53;;;;;;;;;;5091761;28;20657;-57
2023/11/24 10:36:31;;;;;;;2.67;2.13;;;;;;;;;;5089320;28;20089;-57
2023/11/24 10:39:03;;;;;;;2.83;2.03;;;;;;;;;;5074376;28;20078;-57
2023/11/24 10:41:31;;;;;;;4.33;2.53;;;;;;;;;;5068856;28;20079;-57
2023/11/24 10:43:58;;;;;;;3.73;2.03;;;;;;;;;;5070665;28;20039;-56
2023/11/24 10:46:27;;;;;;;4.47;2.10;;;;;;;;;;5073599;28;20020;-57
2023/11/24 10:48:59;;;;;;;3.77;2.63;;;;;;;;;;5073632;28;20040;-57
2023/11/24 10:51:52;;;;;;;3.03;2.17;;;;;;;;;;5073702;28;20025;-57
2023/11/24 10:54:31;;;;;;;3.63;2.43;;;;;;;;;;5086656;28;20085;-57
2023/11/24 10:56:58;;;;;;;3.73;2.20;;;;;;;;;;5084881;28;20056;-57
2023/11/24 10:59:30;;;;;;;2.33;1.73;;;;;;;;;;5068190;28;20048;-56
2023/11/24 11:02:05;;;;;;;2.17;1.70;;;;;;;;;;5068499;28;20032;-57
2023/11/24 11:04:32;;;;;;;3.33;2.40;;;;;;;;;;5068433;28;20036;-57
2023/11/24 11:07:27;;;;;;;4.53;2.37;;;;;;;;;;5071125;28;20471;-57
2023/11/24 11:09:58;;;;;;;2.97;2.20;;;;;;;;;;5090197;28;20075;-57
2023/11/24 11:12:31;;;;;;;2.77;1.97;;;;;;;;;;5093141;28;20071;-56
2023/11/24 11:14:58;;;;;;;3.00;1.80;;;;;;;;;;5083439;28;20040;-57
2023/11/24 11:17:28;;;;;;;3.70;2.20;;;;;;;;;;5073320;28;20024;-57
2023/11/24 11:20:22;;;;;;;3.47;2.33;;;;;;;;;;5068573;28;20483;-57
2023/11/24 11:22:59;;;;;;;4.20;2.50;;;;;;;;;;5067918;28;20040;-57
2023/11/24 11:25:26;;;;;;;3.03;2.20;;;;;;;;;;5048010;28;20049;-57
2023/11/24 11:27:55;;;;;;;6.93;3.03;;;;;;;;;;5047906;28;20527;-57
2023/11/24 11:30:22;;;;;;;5.37;2.23;;;;;;;;;;5053242;28;20037;-57
2023/11/24 11:33:24;;;;;;;4.93;3.17;;;;;;;;;;5053253;28;20029;-57
2023/11/24 11:36:09;;;;;;;4.67;2.63;;;;;;;;;;4972248;28;20048;-57
2023/11/24 11:38:46;;;;;;;4.47;2.17;;;;;;;;;;5047413;28;20099;-57
2023/11/24 11:41:13;;;;;;;4.10;2.20;;;;;;;;;;5050031;28;20040;-56
2023/11/24 11:43:55;;;;;;;2.23;1.73;;;;;;;;;;5047620;28;20013;-57
2023/11/24 11:46:23;;;;;;;6.03;1.97;;;;;;;;;;5048156;28;20098;-57
2023/11/24 11:48:51;;;;;;;3.87;2.00;;;;;;;;;;5047545;28;20033;-58
2023/11/24 11:51:22;;;;;;;5.10;2.63;;;;;;;;;;5049867;28;20063;-56
2023/11/24 11:53:50;;;;;;;3.83;2.40;;;;;;;;;;5052206;28;20041;-57
2023/11/24 11:56:18;;;;;;;3.07;2.30;;;;;;;;;;5052636;28;20364;-57
2023/11/24 11:58:45;;;;;;;3.20;2.07;;;;;;;;;;5052629;28;20422;-57
2023/11/24 12:01:13;;;;;;;2.50;1.90;;;;;;;;;;5063824;28;20024;-56
2023/11/24 12:03:40;;;;;;;4.10;2.30;;;;;;;;;;5069730;28;20031;-57
2023/11/24 12:06:07;;;;;;;2.43;1.90;;;;;;;;;;5067266;28;20036;-56
2023/11/24 12:08:38;;;;;;;2.67;2.07;;;;;;;;;;5067193;28;20491;-56
2023/11/24 12:11:08;;;;;;;4.10;2.17;;;;;;;;;;5066401;28;20016;-56
2023/11/24 12:13:37;;;;;;;10.93;3.27;;;;;;;;;;5084303;28;20115;-57
2023/11/24 12:16:05;;;;;;;4.03;2.73;;;;;;;;;;5092457;28;20050;-56
2023/11/24 12:18:31;;;;;;;2.83;2.40;;;;;;;;;;5092175;28;20039;-57
2023/11/24 12:20:59;;;;;;;3.50;2.30;;;;;;;;;;5092542;28;20490;-56
2023/11/24 12:23:26;;;;;;;4.63;2.83;;;;;;;;;;5089282;28;20035;-56
2023/11/24 12:25:54;;;;;;;5.13;2.50;;;;;;;;;;5068996;28;20025;-56
2023/11/24 12:28:21;;;;;;;4.60;2.00;;;;;;;;;;5067007;28;20125;-56
2023/11/24 12:30:48;;;;;;;4.90;2.80;;;;;;;;;;5067020;28;20494;-57
2023/11/24 12:33:15;;;;;;;5.47;2.47;;;;;;;;;;5067210;28;20079;-56
2023/11/24 12:35:58;;;;;;;10.07;2.50;;;;;;;;;;5068625;28;20044;-56
2023/11/24 12:38:26;;;;;;;4.77;2.40;;;;;;;;;;5078136;28;20028;-56
2023/11/24 12:40:54;;;;;;;12.87;2.30;;;;;;;;;;5071865;28;20081;-56
2023/11/24 12:43:23;;;;;;;3.33;2.37;;;;;;;;;;5072017;28;20068;-56
2023/11/24 12:45:52;;;;;;;9.13;3.10;;;;;;;;;;5072033;28;20028;-56
2023/11/24 12:48:20;;;;;;;4.93;2.67;;;;;;;;;;5069050;28;20067;-57
2023/11/24 12:50:47;;;;;;;6.57;2.47;;;;;;;;;;5066812;28;20024;-56
2023/11/24 12:53:14;;;;;;;2.47;1.83;;;;;;;;;;5066263;28;20069;-56
2023/11/24 12:55:41;;;;;;;4.07;2.53;;;;;;;;;;5066708;28;20078;-57
2023/11/24 12:58:08;;;;;;;3.73;2.00;;;;;;;;;;5048622;28;20025;-56
2023/11/24 13:00:35;;;;;;;6.67;3.13;;;;;;;;;;5052180;28;20013;-56
2023/11/24 13:03:02;;;;;;;2.60;1.90;;;;;;;;;;5051706;28;20033;-56
2023/11/24 13:05:29;;;;;;;3.73;2.37;;;;;;;;;;5051793;28;20033;-56
2023/11/24 13:07:58;;;;;;;4.60;2.53;;;;;;;;;;5068959;28;20438;-57
2023/11/24 13:10:25;;;;;;;5.60;2.27;;;;;;;;;;5068931;28;20104;-57
2023/11/24 13:12:53;;;;;;;4.33;2.60;;;;;;;;;;5084666;28;20055;-56
2023/11/24 13:15:21;;;;;;;2.90;2.20;;;;;;;;;;5086777;28;20044;-56
2023/11/24 13:17:51;;;;;;;3.47;2.30;;;;;;;;;;5086964;28;20387;-57
2023/11/24 13:20:18;;;;;;;3.20;2.10;;;;;;;;;;5088472;28;20431;-56
2023/11/24 13:22:45;;;;;;;5.50;2.67;;;;;;;;;;5094979;28;20143;-57
2023/11/24 13:25:12;;;;;;;17.87;3.03;;;;;;;;;;5095845;28;20111;-56
2023/11/24 13:27:39;;;;;;;4.93;2.93;;;;;;;;;;5089893;28;20028;-57
2023/11/24 13:30:09;;;;;;;7.17;3.47;;;;;;;;;;5093991;28;20067;-56
2023/11/24 13:32:36;;;;;;;5.13;3.80;;;;;;;;;;5075443;28;20448;-57
2023/11/24 13:35:04;;;;;;;5.13;3.53;;;;;;;;;;5069971;28;20029;-57
2023/11/24 13:37:32;;;;;;;6.27;3.90;;;;;;;;;;5070274;28;20052;-57
2023/11/24 13:39:58;;;;;;;11.23;5.30;;;;;;;;;;5070038;28;20028;-57
2023/11/24 13:42:25;;;;;;;13.77;4.77;;;;;;;;;;5070805;28;20025;-57
2023/11/24 13:44:52;;;;;;;8.23;5.00;;;;;;;;;;5074877;28;20020;-57
2023/11/24 13:47:19;;;;;;;5.33;4.03;;;;;;;;;;5090107;28;20032;-57
2023/11/24 13:49:46;;;;;;;5.10;2.90;;;;;;;;;;5094967;28;20390;-57
2023/11/24 13:52:14;;;;;;;3.87;2.63;;;;;;;;;;5095076;28;20028;-57
2023/11/24 13:54:42;;;;;;;5.93;3.37;;;;;;;;;;5093651;28;20204;-57
2023/11/24 13:57:09;;;;;;;3.77;2.30;;;;;;;;;;5089666;28;20483;-57
2023/11/24 13:59:36;;;;;;;3.50;1.70;;;;;;;;;;5089436;28;20104;-58
2023/11/24 14:02:05;;;;;;;3.60;2.40;;;;;;;;;;5090010;28;20016;-57
2023/11/24 14:04:33;;;;;;;4.40;3.00;;;;;;;;;;5090524;28;20490;-57
2023/11/24 14:07:00;;;;;;;5.90;3.40;;;;;;;;;;5083092;28;20032;-57
2023/11/24 14:09:31;;;;;;;5.33;3.57;;;;;;;;;;5074747;28;20086;-57
2023/11/24 14:11:59;;;;;;;4.60;3.50;;;;;;;;;;5074274;28;20028;-57
2023/11/24 14:14:27;;;;;;;4.30;2.63;;;;;;;;;;5074327;28;20058;-57
2023/11/24 14:16:55;;;;;;;4.27;3.17;;;;;;;;;;5073092;28;20032;-57
2023/11/24 14:19:22;;;;;;;8.27;4.00;;;;;;;;;;5069260;28;20399;-57
2023/11/24 14:21:55;;;;;;;11.60;4.40;;;;;;;;;;5076379;28;20031;-57
2023/11/24 14:24:22;;;;;;;6.60;3.57;;;;;;;;;;5089434;28;20432;-57
2023/11/24 14:26:49;;;;;;;19.60;3.33;;;;;;;;;;5090078;28;20031;-57
2023/11/24 14:29:17;;;;;;;6.07;4.10;;;;;;;;;;5094335;28;20028;-57
2023/11/24 14:31:47;;;;;;;4.80;3.37;;;;;;;;;;5094075;28;20055;-58
2023/11/24 14:34:14;;;;;;;5.00;3.53;;;;;;;;;;5091986;28;20048;-57
2023/11/24 14:36:41;;;;;;;4.80;3.27;;;;;;;;;;5087604;28;20035;-57
2023/11/24 14:39:24;;;;;;;3.47;2.50;;;;;;;;;;5087825;28;20032;-57
2023/11/24 14:41:51;;;;;;;5.10;2.97;;;;;;;;;;5087964;28;20024;-58
2023/11/24 14:44:20;;;;;;;6.43;3.17;;;;;;;;;;5088738;28;20024;-57